createdAt,value
2022-07-26T00:00:13.982Z,4.10
2022-07-26T00:02:48.295Z,8.50
2022-07-26T00:05:18.945Z,3.40
2022-07-26T00:07:46.458Z,6.55
2022-07-26T00:10:14.393Z,3.72
2022-07-26T00:12:41.624Z,5.95
2022-07-26T00:15:10.681Z,4.60
2022-07-26T00:17:38.424Z,4.05
2022-07-26T00:20:05.782Z,2.95
2022-07-26T00:22:35.545Z,1.88
2022-07-26T00:25:07.611Z,3.00
2022-07-26T00:27:36.905Z,2.17
2022-07-26T00:30:08.325Z,7.25
2022-07-26T00:32:35.322Z,3.45
2022-07-26T00:35:01.989Z,4.35
2022-07-26T00:37:28.632Z,4.30
2022-07-26T00:39:55.370Z,2.72
2022-07-26T00:42:22.011Z,3.45
2022-07-26T00:44:48.735Z,1.92
2022-07-26T00:47:15.907Z,1.83
2022-07-26T00:49:43.498Z,5.45
2022-07-26T00:52:11.797Z,5.95
2022-07-26T00:54:39.777Z,5.60
2022-07-26T00:57:07.271Z,5.00
2022-07-26T00:59:33.920Z,4.60
2022-07-26T01:02:01.429Z,3.55
2022-07-26T01:04:28.508Z,4.95
2022-07-26T01:06:55.257Z,5.38
2022-07-26T01:09:21.901Z,3.58
2022-07-26T01:11:50.282Z,3.13
2022-07-26T01:14:22.602Z,4.75
2022-07-26T01:16:50.956Z,3.97
2022-07-26T01:19:17.909Z,8.77
2022-07-26T01:21:45.722Z,4.93
2022-07-26T01:24:12.967Z,2.03
2022-07-26T01:26:39.833Z,2.17
2022-07-26T01:29:06.594Z,4.00
2022-07-26T01:31:33.504Z,4.28
2022-07-26T01:34:00.174Z,5.97
2022-07-26T01:36:26.922Z,3.58
2022-07-26T01:38:53.576Z,4.70
2022-07-26T01:41:31.043Z,3.58
2022-07-26T01:44:07.906Z,4.20
2022-07-26T01:46:35.990Z,3.97
2022-07-26T01:49:03.280Z,3.13
2022-07-26T01:51:30.753Z,12.95
2022-07-26T01:53:57.370Z,3.17
2022-07-26T01:56:24.064Z,7.00
2022-07-26T01:58:50.746Z,5.38
2022-07-26T02:01:39.290Z,4.63
2022-07-26T02:04:04.360Z,16.00
2022-07-26T02:06:31.247Z,4.03
2022-07-26T02:08:58.481Z,9.27
2022-07-26T02:11:26.037Z,6.38
2022-07-26T02:13:53.328Z,13.55
2022-07-26T02:16:20.349Z,8.80
2022-07-26T02:18:47.168Z,7.28
2022-07-26T02:21:13.776Z,10.00
2022-07-26T02:23:41.636Z,8.30
2022-07-26T02:26:09.038Z,4.53
2022-07-26T02:28:35.889Z,9.80
2022-07-26T02:31:03.236Z,8.00
2022-07-26T02:33:29.968Z,6.00
2022-07-26T02:35:56.579Z,9.32
2022-07-26T02:38:24.563Z,8.95
2022-07-26T02:40:52.709Z,11.57
2022-07-26T02:43:20.136Z,9.25
2022-07-26T02:46:01.121Z,7.45
2022-07-26T02:48:28.714Z,7.05
2022-07-26T02:50:55.618Z,7.00
2022-07-26T02:53:22.326Z,9.80
2022-07-26T02:55:48.969Z,8.27
2022-07-26T02:58:15.833Z,11.02
2022-07-26T03:00:42.678Z,9.75
2022-07-26T03:03:09.418Z,6.85
2022-07-26T03:05:36.170Z,8.80
2022-07-26T03:08:03.030Z,9.70
2022-07-26T03:10:29.724Z,9.25
2022-07-26T03:12:56.990Z,9.60
2022-07-26T03:15:23.781Z,8.20
2022-07-26T03:17:50.563Z,16.60
2022-07-26T03:20:17.338Z,9.82
2022-07-26T03:22:44.103Z,13.38
2022-07-26T03:25:10.929Z,13.65
2022-07-26T03:27:37.867Z,8.40
2022-07-26T03:30:05.804Z,8.40
2022-07-26T03:32:32.651Z,8.85
2022-07-26T03:34:59.231Z,13.18
2022-07-26T03:37:26.081Z,11.23
2022-07-26T03:40:12.388Z,8.45
2022-07-26T03:42:38.953Z,9.52
2022-07-26T03:45:06.154Z,15.23
2022-07-26T03:47:32.780Z,13.55
2022-07-26T03:49:59.496Z,7.28
2022-07-26T03:52:26.200Z,10.73
2022-07-26T03:54:52.829Z,9.82
2022-07-26T03:57:19.549Z,8.38
2022-07-26T03:59:46.277Z,8.25
2022-07-26T04:02:12.967Z,7.97
2022-07-26T04:04:39.668Z,14.23
2022-07-26T04:07:06.478Z,9.70
2022-07-26T04:09:36.175Z,11.82
2022-07-26T04:12:02.959Z,13.70
2022-07-26T04:14:29.657Z,10.52
2022-07-26T04:16:56.294Z,8.27
2022-07-26T04:19:23.043Z,16.10
2022-07-26T04:21:49.722Z,8.88
2022-07-26T04:24:16.406Z,10.23
2022-07-26T04:26:43.017Z,7.40
2022-07-26T04:29:09.749Z,7.30
2022-07-26T04:31:38.435Z,6.35
2022-07-26T04:34:05.514Z,8.63
2022-07-26T04:36:32.844Z,6.28
2022-07-26T04:38:59.512Z,10.02
2022-07-26T04:41:26.126Z,8.80
2022-07-26T04:43:52.720Z,7.00
2022-07-26T04:46:19.401Z,5.18
2022-07-26T04:48:46.172Z,16.50
2022-07-26T04:51:12.740Z,6.38
2022-07-26T04:53:39.338Z,9.13
2022-07-26T04:56:06.221Z,7.88
2022-07-26T04:58:32.880Z,9.05
2022-07-26T05:01:09.983Z,9.65
2022-07-26T05:03:37.425Z,7.00
2022-07-26T05:06:04.645Z,9.57
2022-07-26T05:08:31.284Z,17.67
2022-07-26T05:10:57.881Z,10.30
2022-07-26T05:13:30.561Z,13.48
2022-07-26T05:15:59.487Z,13.77
2022-07-26T05:18:26.490Z,8.43
2022-07-26T05:20:53.527Z,9.07
2022-07-26T05:23:20.415Z,9.70
2022-07-26T05:25:47.630Z,10.65
2022-07-26T05:28:14.615Z,13.43
2022-07-26T05:30:41.450Z,10.00
2022-07-26T05:33:08.371Z,13.90
2022-07-26T05:35:35.003Z,10.00
2022-07-26T05:38:01.640Z,14.20
2022-07-26T05:40:28.364Z,10.07
2022-07-26T05:42:54.942Z,12.35
2022-07-26T05:45:21.646Z,9.20
2022-07-26T05:47:52.048Z,10.52
2022-07-26T05:50:19.779Z,11.45
2022-07-26T05:52:46.397Z,13.73
2022-07-26T05:55:13.360Z,8.98
2022-07-26T05:57:47.282Z,11.57
2022-07-26T06:00:17.460Z,12.23
2022-07-26T06:02:44.212Z,14.15
2022-07-26T06:05:10.897Z,12.65
2022-07-26T06:07:37.570Z,9.52
2022-07-26T06:10:05.351Z,12.07
2022-07-26T06:12:31.975Z,12.63
2022-07-26T06:14:58.664Z,18.27
2022-07-26T06:17:29.878Z,13.23
2022-07-26T06:19:57.631Z,7.70
2022-07-26T06:22:24.274Z,15.70
2022-07-26T06:24:50.923Z,9.57
2022-07-26T06:27:17.542Z,14.50
2022-07-26T06:29:44.370Z,13.13
2022-07-26T06:32:10.986Z,13.02
2022-07-26T06:34:37.711Z,17.45
2022-07-26T06:37:04.315Z,13.40
2022-07-26T06:39:32.170Z,13.77
2022-07-26T06:41:58.719Z,13.38
2022-07-26T06:44:25.420Z,16.33
2022-07-26T06:46:52.169Z,12.82
2022-07-26T06:49:22.599Z,10.05
2022-07-26T06:51:49.944Z,13.20
2022-07-26T06:54:16.678Z,18.23
2022-07-26T06:56:43.361Z,16.35
2022-07-26T06:59:10.169Z,11.70
2022-07-26T07:01:57.811Z,12.73
2022-07-26T07:04:23.590Z,18.13
2022-07-26T07:06:50.220Z,15.05
2022-07-26T07:09:17.243Z,11.18
2022-07-26T07:11:44.402Z,15.57
2022-07-26T07:14:11.939Z,10.05
2022-07-26T07:16:38.727Z,12.63
2022-07-26T07:19:05.539Z,13.40
2022-07-26T07:21:33.687Z,10.68
2022-07-26T07:24:00.387Z,15.25
2022-07-26T07:26:29.118Z,13.45
2022-07-26T07:28:55.861Z,14.52
2022-07-26T07:31:30.199Z,8.73
2022-07-26T07:33:57.812Z,13.30
2022-07-26T07:36:24.647Z,9.20
2022-07-26T07:38:51.887Z,10.48
2022-07-26T07:41:18.942Z,7.15
2022-07-26T07:43:45.734Z,11.68
2022-07-26T07:46:12.714Z,9.73
2022-07-26T07:48:45.063Z,12.73
2022-07-26T07:51:14.516Z,16.13
2022-07-26T07:53:41.151Z,9.07
2022-07-26T07:56:08.190Z,9.98
2022-07-26T07:58:34.811Z,15.57
2022-07-26T08:01:01.739Z,10.05
2022-07-26T08:03:38.845Z,16.23
2022-07-26T08:06:08.261Z,13.43
2022-07-26T08:08:36.407Z,8.48
2022-07-26T08:11:03.789Z,9.70
2022-07-26T08:13:35.031Z,9.15
2022-07-26T08:16:02.020Z,20.70
2022-07-26T08:18:29.050Z,8.38
2022-07-26T08:20:56.598Z,6.50
2022-07-26T08:23:23.972Z,10.15
2022-07-26T08:26:01.941Z,8.80
2022-07-26T08:28:47.511Z,6.82
2022-07-26T08:31:16.952Z,5.50
2022-07-26T08:33:46.102Z,8.75
2022-07-26T08:36:15.417Z,7.53
2022-07-26T08:38:42.449Z,9.05
2022-07-26T08:41:09.388Z,7.97
2022-07-26T08:43:43.755Z,6.57
2022-07-26T08:46:26.861Z,7.32
2022-07-26T08:48:56.007Z,4.55
2022-07-26T08:51:23.997Z,3.08
2022-07-26T08:53:59.082Z,5.65
2022-07-26T08:56:30.635Z,8.57
2022-07-26T08:58:57.355Z,9.30
2022-07-26T09:01:24.143Z,10.45
2022-07-26T09:03:50.916Z,4.85
2022-07-26T09:06:20.067Z,5.03
2022-07-26T09:08:49.971Z,7.03
2022-07-26T09:11:28.313Z,10.13
2022-07-26T09:13:59.497Z,8.60
2022-07-26T09:16:27.651Z,5.43
2022-07-26T09:18:55.561Z,7.85
2022-07-26T09:21:31.170Z,4.03
2022-07-26T09:23:58.786Z,5.45
2022-07-26T09:26:26.271Z,5.50
2022-07-26T09:29:12.862Z,4.85
2022-07-26T09:31:40.263Z,4.45
2022-07-26T09:34:08.289Z,6.32
2022-07-26T09:36:54.343Z,4.90
2022-07-26T09:39:22.767Z,9.80
2022-07-26T09:42:27.522Z,5.18
2022-07-26T09:44:56.701Z,7.88
2022-07-26T09:47:34.861Z,2.95
2022-07-26T09:50:15.194Z,6.57
2022-07-26T09:52:57.910Z,1.80
2022-07-26T09:55:24.950Z,2.33
2022-07-26T09:57:53.878Z,1.70
2022-07-26T10:00:20.758Z,5.63
2022-07-26T10:02:47.590Z,1.83
2022-07-26T10:05:14.386Z,2.88
2022-07-26T10:07:41.775Z,4.25
2022-07-26T10:10:13.083Z,3.10
2022-07-26T10:12:44.034Z,4.85
2022-07-26T10:15:43.590Z,1.50
2022-07-26T10:18:36.441Z,2.30
2022-07-26T10:21:19.898Z,2.35
2022-07-26T10:23:49.029Z,1.35
2022-07-26T10:26:31.831Z,5.25
2022-07-26T10:29:16.789Z,3.50
2022-07-26T10:31:44.894Z,6.03
2022-07-26T10:34:31.609Z,3.88
2022-07-26T10:37:05.053Z,4.63
2022-07-26T10:39:31.873Z,3.78
2022-07-26T10:42:04.071Z,1.75
2022-07-26T10:44:33.373Z,4.38
2022-07-26T10:47:03.029Z,2.90
2022-07-26T10:49:38.604Z,3.00
2022-07-26T10:54:52.960Z,1.98
2022-07-26T10:57:19.747Z,2.88
2022-07-26T10:59:55.831Z,2.30
2022-07-26T11:02:35.837Z,3.28
2022-07-26T11:05:14.338Z,1.13
2022-07-26T11:07:53.287Z,4.45
2022-07-26T11:10:34.404Z,4.25
2022-07-26T11:13:10.378Z,2.20
2022-07-26T11:15:39.513Z,3.42
2022-07-26T11:18:14.777Z,2.90
2022-07-26T11:20:43.116Z,1.45
2022-07-26T11:23:28.338Z,2.03
2022-07-26T11:26:02.340Z,1.85
2022-07-26T11:28:29.304Z,2.80
2022-07-26T11:30:57.708Z,1.75
2022-07-26T11:33:43.331Z,2.63
2022-07-26T11:36:10.054Z,2.13
2022-07-26T11:38:54.293Z,3.00
2022-07-26T11:41:34.420Z,1.88
2022-07-26T11:44:02.774Z,1.92
2022-07-26T11:46:48.219Z,3.53
2022-07-26T11:49:19.377Z,1.73
2022-07-26T11:51:50.039Z,1.35
2022-07-26T11:54:16.975Z,0.88
2022-07-26T11:56:52.824Z,0.80
2022-07-26T11:59:20.085Z,2.05
2022-07-26T12:01:49.651Z,1.17
2022-07-26T12:04:28.425Z,3.47
2022-07-26T12:06:57.343Z,1.92
2022-07-26T12:09:35.938Z,2.15
2022-07-26T12:12:06.102Z,2.20
2022-07-26T12:14:35.615Z,2.38
2022-07-26T12:17:20.799Z,1.75
2022-07-26T12:19:47.487Z,3.25
2022-07-26T12:22:18.692Z,3.85
2022-07-26T12:24:51.500Z,1.75
2022-07-26T12:27:19.699Z,1.80
2022-07-26T12:29:49.081Z,3.10
2022-07-26T12:32:20.205Z,1.17
2022-07-26T12:34:55.996Z,1.67
2022-07-26T12:37:28.962Z,3.80
2022-07-26T12:40:13.629Z,3.50
2022-07-26T12:42:58.680Z,1.35
2022-07-26T12:45:29.583Z,4.18
2022-07-26T12:47:57.722Z,1.67
2022-07-26T12:50:25.941Z,1.70
2022-07-26T12:52:58.819Z,0.40
2022-07-26T12:55:26.050Z,1.75
2022-07-26T12:57:55.775Z,0.77
2022-07-26T13:00:24.694Z,2.25
2022-07-26T13:02:54.769Z,1.20
2022-07-26T13:05:22.029Z,1.25
2022-07-26T13:07:48.943Z,0.60
2022-07-26T13:10:33.038Z,0.50
2022-07-26T13:13:00.731Z,0.93
2022-07-26T13:15:35.116Z,3.00
2022-07-26T13:18:08.284Z,2.05
2022-07-26T13:20:38.492Z,1.63
2022-07-26T13:23:06.412Z,2.30
2022-07-26T13:25:38.250Z,1.92
2022-07-26T13:28:07.730Z,1.85
2022-07-26T13:30:36.605Z,0.60
2022-07-26T13:33:03.483Z,3.47
2022-07-26T13:35:30.127Z,2.47
2022-07-26T13:37:56.730Z,6.68
2022-07-26T13:40:27.539Z,0.75
2022-07-26T13:42:57.493Z,3.40
2022-07-26T13:45:24.148Z,3.00
2022-07-26T13:47:56.834Z,1.77
2022-07-26T13:50:23.587Z,2.80
2022-07-26T13:52:50.296Z,3.40
2022-07-26T13:55:16.905Z,1.73
2022-07-26T13:57:56.018Z,1.25
2022-07-26T14:00:27.337Z,1.70
2022-07-26T14:02:56.713Z,3.20
2022-07-26T14:05:24.513Z,3.90
2022-07-26T14:07:51.414Z,2.45
2022-07-26T14:10:19.418Z,6.95
2022-07-26T14:12:46.560Z,2.30
2022-07-26T14:15:18.228Z,2.60
2022-07-26T14:17:47.975Z,2.22
2022-07-26T14:20:17.015Z,2.08
2022-07-26T14:22:44.535Z,1.98
2022-07-26T14:25:11.726Z,3.38
2022-07-26T14:27:39.070Z,1.05
2022-07-26T14:30:06.561Z,2.67
2022-07-26T14:32:33.421Z,3.53
2022-07-26T14:35:00.045Z,0.95
2022-07-26T14:37:44.361Z,3.45
2022-07-26T14:40:16.955Z,3.17
2022-07-26T14:42:45.360Z,2.88
2022-07-26T14:45:12.904Z,2.15
2022-07-26T14:47:39.780Z,2.05
2022-07-26T14:50:08.473Z,2.50
2022-07-26T14:52:43.970Z,3.90
2022-07-26T14:57:39.972Z,3.63
2022-07-26T15:00:09.675Z,1.35
2022-07-26T15:02:42.018Z,2.80
2022-07-26T15:05:10.541Z,2.80
2022-07-26T15:07:37.761Z,2.30
2022-07-26T15:10:06.117Z,2.75
2022-07-26T15:12:32.979Z,2.45
2022-07-26T15:14:59.715Z,4.93
2022-07-26T15:17:26.414Z,2.33
2022-07-26T15:19:53.171Z,1.23
2022-07-26T15:22:19.879Z,1.85
2022-07-26T15:24:46.555Z,1.27
2022-07-26T15:27:13.238Z,0.90
2022-07-26T15:29:39.948Z,5.60
2022-07-26T15:32:07.410Z,1.23
2022-07-26T15:34:34.431Z,2.00
2022-07-26T15:37:01.309Z,1.58
2022-07-26T15:39:27.969Z,2.72
2022-07-26T15:41:54.581Z,4.50
2022-07-26T15:44:23.756Z,8.45
2022-07-26T15:46:52.599Z,2.53
2022-07-26T15:49:19.652Z,2.65
2022-07-26T15:51:46.465Z,1.85
2022-07-26T15:54:15.942Z,2.50
2022-07-26T15:56:43.668Z,2.58
2022-07-26T15:59:10.339Z,2.13
2022-07-26T16:01:37.481Z,3.22
2022-07-26T16:04:05.195Z,3.22
2022-07-26T16:06:33.084Z,4.70
2022-07-26T16:09:24.158Z,3.20
2022-07-26T16:11:48.881Z,2.45
2022-07-26T16:14:16.494Z,1.63
2022-07-26T16:16:44.102Z,4.68
2022-07-26T16:19:11.872Z,3.45
2022-07-26T16:21:40.318Z,2.78
2022-07-26T16:24:08.004Z,2.13
2022-07-26T16:26:35.402Z,3.70
2022-07-26T16:29:02.473Z,4.43
2022-07-26T16:31:30.637Z,2.30
2022-07-26T16:33:57.350Z,4.70
2022-07-26T16:36:24.080Z,4.40
2022-07-26T16:38:50.733Z,4.10
2022-07-26T16:41:17.515Z,5.20
2022-07-26T16:43:44.098Z,4.05
2022-07-26T16:46:10.864Z,4.05
2022-07-26T16:48:37.539Z,6.88
2022-07-26T16:51:04.612Z,5.10
2022-07-26T16:53:31.311Z,4.30
2022-07-26T16:55:57.855Z,2.22
2022-07-26T16:58:24.582Z,4.47
2022-07-26T17:00:51.451Z,1.83
2022-07-26T17:03:18.331Z,3.58
2022-07-26T17:05:46.220Z,5.32
2022-07-26T17:08:12.816Z,2.80
2022-07-26T17:10:39.465Z,6.85
2022-07-26T17:13:06.241Z,3.72
2022-07-26T17:15:33.137Z,9.52
2022-07-26T17:17:59.938Z,3.53
2022-07-26T17:20:27.229Z,6.43
2022-07-26T17:22:54.030Z,3.25
2022-07-26T17:25:20.709Z,4.45
2022-07-26T17:27:47.491Z,3.90
2022-07-26T17:30:14.582Z,3.92
2022-07-26T17:32:41.688Z,6.13
2022-07-26T17:35:08.781Z,5.72
2022-07-26T17:37:35.679Z,3.17
2022-07-26T17:40:05.255Z,6.25
2022-07-26T17:42:35.180Z,2.75
2022-07-26T17:45:02.111Z,4.28
2022-07-26T17:47:30.373Z,3.13
2022-07-26T17:50:26.409Z,3.78
2022-07-26T17:52:50.082Z,3.67
2022-07-26T17:55:18.445Z,3.08
2022-07-26T17:57:46.243Z,8.60
2022-07-26T18:00:14.045Z,4.95
2022-07-26T18:02:40.864Z,4.63
2022-07-26T18:05:07.910Z,6.50
2022-07-26T18:07:34.629Z,2.85
2022-07-26T18:10:01.335Z,7.47
2022-07-26T18:12:28.012Z,5.35
2022-07-26T18:14:54.624Z,5.43
2022-07-26T18:17:21.255Z,7.80
2022-07-26T18:19:47.865Z,7.53
2022-07-26T18:22:14.470Z,5.05
2022-07-26T18:24:41.089Z,3.45
2022-07-26T18:27:07.876Z,3.65
2022-07-26T18:29:34.494Z,3.20
2022-07-26T18:32:02.087Z,2.88
2022-07-26T18:34:28.723Z,4.82
2022-07-26T18:36:55.764Z,4.95
2022-07-26T18:39:22.490Z,6.10
2022-07-26T18:41:49.220Z,5.10
2022-07-26T18:44:15.795Z,4.90
2022-07-26T18:46:42.524Z,5.05
2022-07-26T18:49:09.765Z,6.68
2022-07-26T18:51:48.658Z,5.50
2022-07-26T18:54:16.335Z,6.07
2022-07-26T18:56:43.233Z,5.63
2022-07-26T18:59:10.333Z,5.45
2022-07-26T19:01:37.613Z,5.45
2022-07-26T19:04:07.012Z,3.88
2022-07-26T19:06:34.723Z,5.43
2022-07-26T19:09:01.464Z,6.45
2022-07-26T19:11:29.548Z,6.30
2022-07-26T19:13:56.210Z,6.03
2022-07-26T19:16:23.065Z,7.47
2022-07-26T19:18:53.786Z,4.47
2022-07-26T19:21:24.153Z,5.03
2022-07-26T19:23:50.896Z,3.92
2022-07-26T19:26:17.579Z,4.60
2022-07-26T19:28:44.329Z,10.70
2022-07-26T19:31:11.131Z,5.80
2022-07-26T19:33:38.038Z,9.35
2022-07-26T19:36:04.896Z,5.43
2022-07-26T19:38:32.876Z,7.55
2022-07-26T19:41:00.254Z,6.63
2022-07-26T19:43:27.251Z,4.35
2022-07-26T19:45:53.955Z,6.35
2022-07-26T19:48:21.026Z,6.68
2022-07-26T19:50:47.661Z,5.70
2022-07-26T19:53:14.272Z,3.95
2022-07-26T19:55:42.336Z,6.45
2022-07-26T19:58:09.168Z,5.47
2022-07-26T20:00:35.939Z,9.18
2022-07-26T20:03:02.921Z,4.43
2022-07-26T20:05:29.637Z,7.38
2022-07-26T20:07:56.484Z,4.70
2022-07-26T20:10:25.296Z,11.02
2022-07-26T20:12:54.156Z,2.75
2022-07-26T20:15:22.396Z,4.53
2022-07-26T20:17:49.088Z,9.05
2022-07-26T20:20:17.782Z,5.35
2022-07-26T20:22:44.475Z,5.88
2022-07-26T20:25:11.279Z,4.13
2022-07-26T20:27:38.011Z,4.03
2022-07-26T20:30:05.697Z,7.25
2022-07-26T20:32:32.321Z,13.77
2022-07-26T20:34:58.905Z,4.82
2022-07-26T20:37:25.551Z,5.40
2022-07-26T20:39:52.161Z,5.20
2022-07-26T20:42:21.753Z,4.00
2022-07-26T20:44:48.839Z,5.35
2022-07-26T20:47:15.722Z,9.35
2022-07-26T20:49:42.365Z,5.40
2022-07-26T20:52:09.000Z,3.58
2022-07-26T20:54:35.666Z,3.75
2022-07-26T20:57:04.547Z,2.42
2022-07-26T20:59:32.328Z,6.63
2022-07-26T21:01:59.135Z,5.97
2022-07-26T21:04:25.823Z,3.42
2022-07-26T21:06:52.609Z,5.57
2022-07-26T21:09:19.801Z,7.72
2022-07-26T21:11:46.740Z,6.70
2022-07-26T21:14:13.363Z,7.03
2022-07-26T21:16:40.111Z,2.80
2022-07-26T21:19:06.893Z,6.13
2022-07-26T21:21:34.200Z,4.57
2022-07-26T21:24:00.911Z,4.32
2022-07-26T21:26:27.648Z,6.10
2022-07-26T21:28:54.226Z,4.05
2022-07-26T21:31:21.131Z,7.53
2022-07-26T21:33:47.718Z,6.13
2022-07-26T21:36:14.455Z,6.55
2022-07-26T21:38:42.249Z,4.70
2022-07-26T21:41:09.414Z,3.80
2022-07-26T21:43:40.195Z,4.07
2022-07-26T21:46:12.236Z,9.10
2022-07-26T21:48:40.081Z,5.28
2022-07-26T21:51:06.806Z,7.70
2022-07-26T21:53:33.540Z,4.00
2022-07-26T21:56:00.150Z,3.72
2022-07-26T21:58:28.129Z,3.75
2022-07-26T22:01:03.276Z,2.72
2022-07-26T22:03:34.911Z,4.05
2022-07-26T22:06:01.541Z,5.25
2022-07-26T22:08:28.193Z,8.55
2022-07-26T22:10:54.824Z,6.53
2022-07-26T22:13:21.472Z,4.07
2022-07-26T22:15:48.168Z,3.00
2022-07-26T22:18:14.806Z,4.03
2022-07-26T22:20:42.494Z,4.30
2022-07-26T22:23:11.230Z,7.47
2022-07-26T22:25:38.913Z,4.85
2022-07-26T22:28:07.318Z,3.45
2022-07-26T22:30:34.447Z,2.78
2022-07-26T22:33:03.160Z,3.40
2022-07-26T22:35:34.907Z,3.70
2022-07-26T22:38:06.014Z,5.40
2022-07-26T22:40:33.034Z,4.85
2022-07-26T22:42:59.942Z,2.45
2022-07-26T22:45:27.682Z,4.93
2022-07-26T22:47:56.144Z,5.15
2022-07-26T22:50:23.815Z,4.50
2022-07-26T22:52:52.564Z,1.88
2022-07-26T22:55:19.972Z,6.90
2022-07-26T22:57:47.473Z,2.13
2022-07-26T23:00:16.351Z,2.45
2022-07-26T23:02:43.452Z,4.03
2022-07-26T23:05:10.870Z,4.72
2022-07-26T23:07:37.879Z,6.25
2022-07-26T23:10:07.118Z,2.42
2022-07-26T23:12:34.316Z,1.98
2022-07-26T23:15:01.071Z,3.28
2022-07-26T23:17:28.062Z,4.32
2022-07-26T23:19:54.625Z,3.63
2022-07-26T23:22:21.368Z,6.55
2022-07-26T23:24:48.096Z,3.88
2022-07-26T23:27:19.815Z,4.40
2022-07-26T23:29:48.007Z,3.63
2022-07-26T23:32:15.742Z,3.22
2022-07-26T23:34:42.685Z,5.15
2022-07-26T23:37:09.435Z,3.53
2022-07-26T23:39:36.164Z,3.10
2022-07-26T23:42:02.951Z,8.73
2022-07-26T23:44:30.625Z,2.45
2022-07-26T23:46:58.514Z,1.60
2022-07-26T23:49:25.826Z,4.30
2022-07-26T23:51:52.618Z,2.22
2022-07-26T23:54:19.629Z,4.47
2022-07-26T23:56:46.294Z,4.47
2022-07-26T23:59:13.856Z,2.20
